createdAt,value
2018-04-16T00:01:53.998Z,18.10
2018-04-16T00:04:22.219Z,18.10
2018-04-16T00:06:50.528Z,18.20
2018-04-16T00:09:18.025Z,18.20
2018-04-16T00:11:46.224Z,18.20
2018-04-16T00:14:13.977Z,18.10
2018-04-16T00:16:42.403Z,19.40
2018-04-16T00:19:11.308Z,18.10
2018-04-16T00:21:38.833Z,18.10
2018-04-16T00:24:06.345Z,18.10
2018-04-16T00:26:33.873Z,18.10
2018-04-16T00:29:01.550Z,18.10
2018-04-16T00:31:34.735Z,18.10
2018-04-16T00:34:07.861Z,18.10
2018-04-16T00:36:41.068Z,18.10
2018-04-16T00:39:15.081Z,18.00
2018-04-16T00:41:48.635Z,18.00
2018-04-16T00:44:22.377Z,17.90
2018-04-16T00:46:55.832Z,17.90
2018-04-16T00:49:29.078Z,17.90
2018-04-16T00:52:02.685Z,17.90
2018-04-16T00:54:35.892Z,17.80
2018-04-16T00:57:09.786Z,17.70
2018-04-16T00:59:42.992Z,17.60
2018-04-16T01:02:16.383Z,17.40
2018-04-16T01:04:49.581Z,17.40
2018-04-16T01:07:23.127Z,17.50
2018-04-16T01:09:57.040Z,17.60
2018-04-16T01:12:31.869Z,17.70
2018-04-16T01:15:05.044Z,17.70
2018-04-16T01:17:38.339Z,17.80
2018-04-16T01:20:12.505Z,17.70
2018-04-16T01:22:45.678Z,17.80
2018-04-16T01:25:18.748Z,17.80
2018-04-16T01:27:52.091Z,17.70
2018-04-16T01:30:26.416Z,17.70
2018-04-16T01:32:59.767Z,17.70
2018-04-16T01:35:32.993Z,17.60
2018-04-16T01:38:06.137Z,17.60
2018-04-16T01:40:40.409Z,17.60
2018-04-16T01:43:15.503Z,17.60
2018-04-16T01:45:48.712Z,17.50
2018-04-16T01:48:21.905Z,17.40
2018-04-16T01:50:56.148Z,17.40
2018-04-16T01:53:30.349Z,17.40
2018-04-16T01:56:03.527Z,17.40
2018-04-16T01:58:36.639Z,17.30
2018-04-16T02:01:10.560Z,17.30
2018-04-16T02:03:43.664Z,17.20
2018-04-16T02:09:20.034Z,17.10
2018-04-16T02:11:53.221Z,17.10
2018-04-16T02:14:26.432Z,17.00
2018-04-16T02:16:59.626Z,17.00
2018-04-16T02:19:33.795Z,17.00
2018-04-16T02:22:07.643Z,17.00
2018-04-16T02:24:40.757Z,16.90
2018-04-16T02:27:14.598Z,17.00
2018-04-16T02:29:47.843Z,17.00
2018-04-16T02:32:21.088Z,16.90
2018-04-16T02:34:55.287Z,16.80
2018-04-16T02:37:29.198Z,16.80
2018-04-16T02:40:02.597Z,16.90
2018-04-16T02:42:36.568Z,16.90
2018-04-16T02:45:09.568Z,16.90
2018-04-16T02:47:42.633Z,16.80
2018-04-16T02:50:15.781Z,16.80
2018-04-16T02:52:48.901Z,16.90
2018-04-16T02:55:22.848Z,16.80
2018-04-16T02:58:10.066Z,16.80
2018-04-16T03:00:44.065Z,16.70
2018-04-16T03:03:17.301Z,16.70
2018-04-16T03:05:51.153Z,16.70
2018-04-16T03:08:24.571Z,16.70
2018-04-16T03:10:57.823Z,16.70
2018-04-16T03:13:31.784Z,16.50
2018-04-16T03:16:04.869Z,16.50
2018-04-16T03:18:38.094Z,16.50
2018-04-16T03:21:11.473Z,16.50
2018-04-16T03:23:44.720Z,16.50
2018-04-16T03:26:17.865Z,16.50
2018-04-16T03:28:51.112Z,16.50
2018-04-16T03:31:24.745Z,16.40
2018-04-16T03:33:58.345Z,16.40
2018-04-16T03:36:32.121Z,16.40
2018-04-16T03:39:05.207Z,16.40
2018-04-16T03:41:38.334Z,16.30
2018-04-16T03:44:11.915Z,16.30
2018-04-16T03:46:46.311Z,16.40
2018-04-16T08:55:05.915Z,19.00
2018-04-16T08:57:34.193Z,19.00
2018-04-16T09:00:01.702Z,19.20
2018-04-16T09:02:29.251Z,19.40
2018-04-16T09:04:56.748Z,19.00
2018-04-16T09:07:24.252Z,19.00
2018-04-16T09:09:51.767Z,18.90
2018-04-16T09:12:19.275Z,19.00
2018-04-16T09:14:47.077Z,19.10
2018-04-16T09:17:15.517Z,19.50
2018-04-16T09:19:43.505Z,19.50
2018-04-16T09:22:11.038Z,19.30
2018-04-16T09:24:39.421Z,19.30
2018-04-16T09:27:06.920Z,19.50
2018-04-16T09:29:35.321Z,19.60
2018-04-16T09:32:02.832Z,19.90
2018-04-16T09:34:30.900Z,20.00
2018-04-16T09:36:58.395Z,20.20
2018-04-16T09:39:27.469Z,20.40
2018-04-16T09:41:54.965Z,20.50
2018-04-16T09:44:23.498Z,20.50
2018-04-16T09:46:51.004Z,20.80
2018-04-16T09:49:19.248Z,21.20
2018-04-16T09:51:47.293Z,21.30
2018-04-16T09:54:14.804Z,21.20
2018-04-16T09:56:43.065Z,21.00
2018-04-16T09:59:10.582Z,21.00
2018-04-16T10:01:38.883Z,21.00
2018-04-16T10:04:06.507Z,21.10
2018-04-16T10:06:34.008Z,20.90
2018-04-16T10:09:02.343Z,20.80
2018-04-16T10:11:30.779Z,20.90
2018-04-16T10:13:58.283Z,21.00
2018-04-16T10:16:26.725Z,20.80
2018-04-16T10:18:54.250Z,20.90
2018-04-16T10:21:22.678Z,21.00
2018-04-16T10:23:50.185Z,21.20
2018-04-16T10:26:17.695Z,21.30
2018-04-16T10:28:45.202Z,21.40
2018-04-16T10:31:12.720Z,21.50
2018-04-16T10:33:40.228Z,21.30
2018-04-16T10:36:07.744Z,21.40
2018-04-16T10:38:35.289Z,21.40
2018-04-16T10:41:04.052Z,21.10
2018-04-16T10:43:31.522Z,21.10
2018-04-16T10:45:59.668Z,21.10
2018-04-16T10:48:27.182Z,21.20
2018-04-16T10:50:55.444Z,21.40
2018-04-16T10:53:23.708Z,21.30
2018-04-16T10:55:52.712Z,21.30
2018-04-16T10:58:20.230Z,21.30
2018-04-16T11:00:47.745Z,21.30
2018-04-16T11:03:15.257Z,21.30
2018-04-16T11:05:42.885Z,21.40
2018-04-16T11:08:10.385Z,21.40
2018-04-16T11:10:37.905Z,21.50
2018-04-16T11:13:05.424Z,21.40
2018-04-16T11:15:32.933Z,21.00
2018-04-16T11:18:00.445Z,21.00
2018-04-16T11:20:28.274Z,21.10
2018-04-16T11:22:55.828Z,21.20
2018-04-16T11:25:24.457Z,21.30
2018-04-16T11:27:51.964Z,21.30
2018-04-16T11:30:19.460Z,21.20
2018-04-16T11:32:47.581Z,21.10
2018-04-16T11:35:15.892Z,21.20
2018-04-16T11:37:43.680Z,21.40
2018-04-16T11:40:12.599Z,21.40
2018-04-16T11:42:40.948Z,21.50
2018-04-16T11:45:09.229Z,21.90
2018-04-16T11:47:38.323Z,22.10
2018-04-16T11:50:05.825Z,22.00
2018-04-16T11:52:33.995Z,21.90
2018-04-16T11:55:01.503Z,21.50
2018-04-16T11:57:29.017Z,21.40
2018-04-16T11:59:56.541Z,21.50
2018-04-16T12:02:25.891Z,21.30
2018-04-16T12:04:56.343Z,21.20
2018-04-16T12:07:23.899Z,21.30
2018-04-16T12:09:52.191Z,21.30
2018-04-16T12:12:19.705Z,21.30
2018-04-16T12:14:47.625Z,21.30
2018-04-16T12:17:16.121Z,21.20
2018-04-16T12:19:43.610Z,20.80
2018-04-16T12:22:12.772Z,20.50
2018-04-16T12:24:40.284Z,20.50
2018-04-16T12:27:10.137Z,20.30
2018-04-16T12:29:38.635Z,20.10
2018-04-16T12:32:06.258Z,20.20
2018-04-16T12:34:33.754Z,20.30
2018-04-16T12:37:02.241Z,20.70
2018-04-16T12:39:29.770Z,21.00
2018-04-16T12:41:57.273Z,21.20
2018-04-16T12:44:24.792Z,21.40
2018-04-16T12:46:52.293Z,21.70
2018-04-16T12:49:20.423Z,21.90
2018-04-16T12:51:48.049Z,22.10
2018-04-16T12:54:16.329Z,22.00
2018-04-16T12:56:43.827Z,21.90
2018-04-16T12:59:11.336Z,21.50
2018-04-16T13:01:38.829Z,21.40
2018-04-16T13:04:06.688Z,21.20
2018-04-16T13:06:34.182Z,21.10
2018-04-16T13:09:01.700Z,21.00
2018-04-16T13:11:29.216Z,20.90
2018-04-16T13:13:57.644Z,21.00
2018-04-16T13:16:25.649Z,21.10
2018-04-16T13:18:53.163Z,21.00
2018-04-16T13:21:20.665Z,21.10
2018-04-16T13:23:48.189Z,20.90
2018-04-16T13:26:15.687Z,21.00
2018-04-16T13:28:43.202Z,21.00
2018-04-16T13:31:10.693Z,20.50
2018-04-16T13:33:38.209Z,20.40
2018-04-16T13:36:07.402Z,20.30
2018-04-16T13:38:35.696Z,20.40
2018-04-16T13:41:03.185Z,20.40
2018-04-16T13:43:30.716Z,20.30
2018-04-16T13:45:58.216Z,20.30
2018-04-16T13:48:25.705Z,20.40
2018-04-16T13:50:53.232Z,20.60
2018-04-16T13:53:20.728Z,20.50
2018-04-16T13:55:49.101Z,20.50
2018-04-16T13:58:17.544Z,20.40
2018-04-16T14:00:45.089Z,20.30
2018-04-16T14:03:13.177Z,20.40
2018-04-16T14:05:40.718Z,20.50
2018-04-16T14:08:08.639Z,20.50
2018-04-16T14:10:36.160Z,20.60
2018-04-16T14:13:03.669Z,20.30
2018-04-16T14:15:31.183Z,20.50
2018-04-16T14:17:58.673Z,20.70
2018-04-16T14:20:26.212Z,20.70
2018-04-16T14:22:53.774Z,20.90
2018-04-16T14:25:21.924Z,21.10
2018-04-16T14:27:51.246Z,21.40
2018-04-16T14:30:18.781Z,21.60
2018-04-16T14:32:46.819Z,21.60
2018-04-16T14:35:14.350Z,21.70
2018-04-16T14:37:41.897Z,21.80
2018-04-16T14:40:09.507Z,21.90
2018-04-16T14:42:37.676Z,22.10
2018-04-16T14:45:05.193Z,22.20
2018-04-16T14:47:32.704Z,22.40
2018-04-16T14:50:00.365Z,22.70
2018-04-16T14:52:28.642Z,23.60
2018-04-16T14:54:56.163Z,23.60
2018-04-16T14:57:23.673Z,24.50
2018-04-16T14:59:51.185Z,25.00
2018-04-16T15:02:19.168Z,25.20
2018-04-16T15:04:46.676Z,25.20
2018-04-16T15:07:19.423Z,25.80
2018-04-16T15:09:46.943Z,26.60
2018-04-16T15:12:14.440Z,27.30
2018-04-16T15:14:41.964Z,27.70
2018-04-16T15:17:09.460Z,27.80
2018-04-16T15:19:36.976Z,27.20
2018-04-16T15:22:04.488Z,26.10
2018-04-16T15:24:32.017Z,25.70
2018-04-16T15:27:00.733Z,25.40
2018-04-16T15:29:29.004Z,24.60
2018-04-16T15:31:56.754Z,24.50
2018-04-16T15:34:24.251Z,24.40
2018-04-16T15:36:52.533Z,23.90
2018-04-16T15:39:20.819Z,23.70
2018-04-16T15:41:48.364Z,23.70
2018-04-16T15:44:16.639Z,23.40
2018-04-16T15:46:44.915Z,23.30
2018-04-16T15:49:13.178Z,23.40
2018-04-16T15:51:41.700Z,23.40
2018-04-16T15:54:09.200Z,23.30
2018-04-16T15:56:37.431Z,23.50
2018-04-16T15:59:04.947Z,23.40
2018-04-16T16:01:32.455Z,23.20
2018-04-16T16:03:59.956Z,23.30
2018-04-16T16:06:27.468Z,23.40
2018-04-16T16:08:54.969Z,23.50
2018-04-16T16:11:23.829Z,23.50
2018-04-16T16:13:51.511Z,23.40
2018-04-16T16:16:20.386Z,23.30
2018-04-16T16:18:47.947Z,23.10
2018-04-16T16:21:16.398Z,23.00
2018-04-16T16:23:44.848Z,23.00
2018-04-16T16:26:12.509Z,22.90
2018-04-16T16:28:41.991Z,22.90
2018-04-16T16:31:10.152Z,22.60
2018-04-16T16:33:37.667Z,22.50
2018-04-16T16:36:05.433Z,22.50
2018-04-16T16:38:33.356Z,22.30
2018-04-16T16:41:00.896Z,22.10
2018-04-16T16:43:28.453Z,22.00
2018-04-16T16:45:55.971Z,21.90
2018-04-16T16:48:23.490Z,21.80
2018-04-16T16:50:50.993Z,21.70
2018-04-16T16:53:18.506Z,21.70
2018-04-16T16:55:46.925Z,21.70
2018-04-16T16:58:14.742Z,21.70
2018-04-16T17:00:42.320Z,22.00
2018-04-16T17:03:10.194Z,22.30
2018-04-16T17:05:37.726Z,22.30
2018-04-16T17:08:07.053Z,22.30
2018-04-16T17:10:34.554Z,22.20
2018-04-16T17:13:02.076Z,22.30
2018-04-16T17:15:29.673Z,22.40
2018-04-16T17:17:57.972Z,22.30
2018-04-16T17:20:27.876Z,22.30
2018-04-16T17:22:56.118Z,22.40
2018-04-16T17:25:23.693Z,22.50
2018-04-16T17:27:51.206Z,22.50
2018-04-16T17:30:18.860Z,22.50
2018-04-16T17:32:46.352Z,22.40
2018-04-16T17:35:14.777Z,22.40
2018-04-16T17:37:42.272Z,22.20
2018-04-16T17:40:09.926Z,22.20
2018-04-16T17:42:38.340Z,22.20
2018-04-16T17:45:08.398Z,21.60
2018-04-16T17:47:36.682Z,21.60
2018-04-16T17:50:04.524Z,21.60
2018-04-16T17:52:32.145Z,21.50
2018-04-16T17:55:00.552Z,21.30
2018-04-16T17:57:28.049Z,21.30
2018-04-16T17:59:55.583Z,21.10
2018-04-16T18:02:23.565Z,21.00
2018-04-16T18:04:51.816Z,20.70
2018-04-16T18:07:19.315Z,20.50
2018-04-16T18:09:46.861Z,20.40
2018-04-16T18:12:14.384Z,20.20
2018-04-16T18:14:43.397Z,20.10
2018-04-16T18:17:10.925Z,19.90
2018-04-16T18:19:38.613Z,19.80
2018-04-16T18:22:08.080Z,19.60
2018-04-16T18:24:36.086Z,19.40
2018-04-16T18:27:04.219Z,19.40
2018-04-16T18:29:32.449Z,19.30
2018-04-16T18:31:59.995Z,19.00
2018-04-16T18:34:28.484Z,18.80
2018-04-16T18:36:55.981Z,18.90
2018-04-16T18:39:23.524Z,18.80
2018-04-16T18:41:51.017Z,18.70
2018-04-16T18:44:19.288Z,18.50
2018-04-16T18:46:47.565Z,18.40
2018-04-16T18:49:16.467Z,18.30
2018-04-16T18:51:44.872Z,18.30
2018-04-16T18:54:12.397Z,18.30
2018-04-16T18:56:39.936Z,18.20
2018-04-16T18:59:07.489Z,18.20
2018-04-16T19:01:36.412Z,18.10
2018-04-16T19:04:04.673Z,18.00
2018-04-16T19:06:33.136Z,18.00
2018-04-16T19:09:01.562Z,18.00
2018-04-16T19:11:29.860Z,17.80
2018-04-16T19:13:57.960Z,17.80
2018-04-16T19:16:31.208Z,17.70
2018-04-16T19:21:48.625Z,17.60
2018-04-16T19:24:22.941Z,17.50
2018-04-16T19:26:57.521Z,17.40
2018-04-16T19:29:25.016Z,17.40
2018-04-16T19:31:59.046Z,17.40
2018-04-16T19:34:33.393Z,17.40
2018-04-16T19:37:03.078Z,17.40
2018-04-16T19:39:32.204Z,17.20
2018-04-16T19:42:08.375Z,17.20
2018-04-16T19:44:36.296Z,17.20
2018-04-16T19:50:01.036Z,17.10
2018-04-16T19:52:29.313Z,16.90
2018-04-16T19:54:57.971Z,16.90
2018-04-16T19:57:32.077Z,16.90
2018-04-16T19:59:59.572Z,17.00
2018-04-16T20:02:33.405Z,17.00
2018-04-16T20:05:01.715Z,17.10
2018-04-16T20:07:29.469Z,17.00
2018-04-16T20:09:57.005Z,17.10
2018-04-16T20:12:24.978Z,17.00
2018-04-16T20:14:52.474Z,17.10
2018-04-16T20:17:19.993Z,17.00
2018-04-16T20:19:47.496Z,17.00
2018-04-16T20:22:15.004Z,17.00
2018-04-16T20:24:42.804Z,17.00
2018-04-16T20:27:10.318Z,16.90
2018-04-16T20:29:39.573Z,16.70
2018-04-16T20:32:07.108Z,16.70
2018-04-16T20:34:34.611Z,16.70
2018-04-16T20:37:02.127Z,16.60
2018-04-16T20:39:29.948Z,16.60
2018-04-16T20:41:57.468Z,16.50
2018-04-16T20:44:27.413Z,16.50
2018-04-16T20:46:54.946Z,16.50
2018-04-16T20:49:23.092Z,16.40
2018-04-16T20:51:50.614Z,16.20
2018-04-16T20:54:18.137Z,16.20
2018-04-16T20:56:46.053Z,16.20
2018-04-16T20:59:14.338Z,16.10
2018-04-16T21:01:42.695Z,16.00
2018-04-16T21:04:10.284Z,16.10
2018-04-16T21:06:39.054Z,16.10
2018-04-16T21:09:07.333Z,16.30
2018-04-16T21:11:35.601Z,16.30
2018-04-16T21:14:03.708Z,16.20
2018-04-16T21:16:32.080Z,16.30
2018-04-16T21:19:00.364Z,16.30
2018-04-16T21:21:27.876Z,16.30
2018-04-16T21:23:56.372Z,16.30
2018-04-16T21:26:25.058Z,16.20
2018-04-16T21:28:53.392Z,16.20
2018-04-16T21:31:20.893Z,16.10
2018-04-16T21:33:48.401Z,16.10
2018-04-16T21:36:15.912Z,16.10
2018-04-16T21:38:43.423Z,16.00
2018-04-16T21:41:12.062Z,16.00
2018-04-16T21:43:39.624Z,15.90
2018-04-16T21:46:07.197Z,15.90
2018-04-16T21:48:34.722Z,15.90
2018-04-16T21:51:02.218Z,15.90
2018-04-16T21:53:29.730Z,15.90
2018-04-16T21:55:57.219Z,15.90
2018-04-16T21:58:24.751Z,15.90
2018-04-16T22:00:52.249Z,15.90
2018-04-16T22:03:20.545Z,15.80
2018-04-16T22:05:48.876Z,15.80
2018-04-16T22:08:16.515Z,15.90
2018-04-16T22:10:45.001Z,15.90
2018-04-16T22:13:12.496Z,15.80
2018-04-16T22:15:40.017Z,15.70
2018-04-16T22:18:07.508Z,15.80
2018-04-16T22:20:35.390Z,15.80
2018-04-16T22:23:04.297Z,15.80
2018-04-16T22:25:32.055Z,15.80
2018-04-16T22:27:59.551Z,15.80
2018-04-16T22:30:27.068Z,15.80
2018-04-16T22:32:54.565Z,15.70
2018-04-16T22:35:22.080Z,15.60
2018-04-16T22:37:50.100Z,15.60
2018-04-16T22:40:17.628Z,15.60
2018-04-16T22:42:45.893Z,15.40
2018-04-16T22:45:13.414Z,15.40
2018-04-16T22:47:40.917Z,15.40
2018-04-16T22:50:08.423Z,15.40
2018-04-16T22:52:35.928Z,15.30
2018-04-16T22:55:04.011Z,15.30
2018-04-16T22:57:32.259Z,15.20
2018-04-16T22:59:59.763Z,15.30
2018-04-16T23:02:27.319Z,15.20
2018-04-16T23:04:56.226Z,15.10
2018-04-16T23:07:23.730Z,15.10
2018-04-16T23:09:51.224Z,15.00
2018-04-16T23:12:19.522Z,14.90
2018-04-16T23:14:47.007Z,14.80
2018-04-16T23:17:14.537Z,14.70
2018-04-16T23:19:42.032Z,14.70
2018-04-16T23:22:10.470Z,14.70
2018-04-16T23:24:37.970Z,14.60
2018-04-16T23:27:06.466Z,14.60
2018-04-16T23:29:33.929Z,14.60
